createdAt,value
2022-08-17T00:01:09.804Z,99419.16
2022-08-17T00:05:15.499Z,99421.03
2022-08-17T00:09:18.601Z,99428.88
2022-08-17T00:13:30.121Z,99425.38
2022-08-17T00:17:31.912Z,99408.03
2022-08-17T00:21:59.952Z,99425.16
2022-08-17T00:25:56.512Z,99433.28
2022-08-17T00:29:58.262Z,99428.16
2022-08-17T00:34:00.187Z,99428.09
2022-08-17T00:38:02.035Z,99439.66
2022-08-17T00:42:16.223Z,99429.81
2022-08-17T00:46:21.753Z,99434.09
2022-08-17T00:50:23.716Z,99423.75
2022-08-17T00:54:29.949Z,99430.28
2022-08-17T00:58:36.041Z,99430.28
2022-08-17T01:02:43.298Z,99441.94
2022-08-17T01:06:49.617Z,99427.22
2022-08-17T01:10:59.778Z,99429.72
2022-08-17T01:15:05.465Z,99427.75
2022-08-17T01:19:20.212Z,99440.69
2022-08-17T01:23:23.661Z,99437.78
2022-08-17T01:27:26.677Z,99449.53
2022-08-17T01:31:31.904Z,99439.84
2022-08-17T01:35:33.629Z,99440.88
2022-08-17T01:39:50.733Z,99436.09
2022-08-17T01:43:56.878Z,99438.66
2022-08-17T01:47:58.688Z,99446.81
2022-08-17T01:52:07.768Z,99443.69
2022-08-17T01:56:12.606Z,99452.41
2022-08-17T02:00:14.721Z,99456.44
2022-08-17T02:04:23.672Z,99456.09
2022-08-17T02:08:37.352Z,99464.25
2022-08-17T02:12:47.853Z,99458.94
2022-08-17T02:16:49.737Z,99462.88
2022-08-17T02:20:58.750Z,99459.31
2022-08-17T02:25:02.357Z,99452.47
2022-08-17T02:29:04.683Z,99439.28
2022-08-17T02:33:09.377Z,99457.34
2022-08-17T02:37:11.443Z,99466.97
2022-08-17T02:41:13.472Z,99448.56
2022-08-17T02:45:18.847Z,99444.75
2022-08-17T02:49:20.594Z,99438.22
2022-08-17T02:53:22.447Z,99461.03
2022-08-17T02:57:24.284Z,99449.09
2022-08-17T03:01:27.174Z,99453.72
2022-08-17T03:05:30.326Z,99452.56
2022-08-17T03:09:32.199Z,99450.81
2022-08-17T03:13:34.315Z,99462.25
2022-08-17T03:17:36.131Z,99443.75
2022-08-17T03:21:37.954Z,99436.47
2022-08-17T03:25:44.027Z,99434.72
2022-08-17T03:29:45.942Z,99426.94
2022-08-17T03:33:48.064Z,99430.00
2022-08-17T03:37:52.429Z,99437.75
2022-08-17T03:42:32.095Z,99441.44
2022-08-17T03:46:53.177Z,99445.13
2022-08-17T03:51:14.914Z,99431.34
2022-08-17T03:55:52.059Z,99426.91
2022-08-17T03:59:54.375Z,99433.16
2022-08-17T04:03:56.167Z,99431.63
2022-08-17T04:07:57.961Z,99428.31
2022-08-17T04:12:02.270Z,99439.72
2022-08-17T04:16:07.113Z,99446.31
2022-08-17T04:20:09.815Z,99439.81
2022-08-17T04:24:11.626Z,99440.91
2022-08-17T04:28:16.279Z,99450.47
2022-08-17T04:32:59.177Z,99460.78
2022-08-17T04:36:42.591Z,99465.81
2022-08-17T04:41:11.034Z,99457.97
2022-08-17T04:45:12.901Z,99450.50
2022-08-17T04:49:17.580Z,99456.88
2022-08-17T04:53:19.656Z,99457.59
2022-08-17T04:57:21.430Z,99469.44
2022-08-17T05:01:24.944Z,99462.25
2022-08-17T05:05:32.841Z,99470.81
2022-08-17T05:09:34.656Z,99483.09
2022-08-17T05:13:36.386Z,99470.19
2022-08-17T05:17:38.152Z,99467.47
2022-08-17T05:21:39.923Z,99469.13
2022-08-17T05:25:47.670Z,99477.53
2022-08-17T05:29:49.628Z,99473.16
2022-08-17T05:33:51.811Z,99468.88
2022-08-17T05:37:53.870Z,99466.69
2022-08-17T05:42:01.334Z,99474.34
2022-08-17T05:46:24.643Z,99469.91
2022-08-17T05:50:31.488Z,99471.00
2022-08-17T05:55:22.288Z,99470.88
2022-08-17T05:59:34.926Z,99463.22
2022-08-17T06:04:21.919Z,99481.91
2022-08-17T06:09:00.933Z,99476.63
2022-08-17T06:13:09.630Z,99475.13
2022-08-17T06:17:15.811Z,99485.56
2022-08-17T06:21:18.944Z,99485.50
2022-08-17T06:25:51.895Z,99472.63
2022-08-17T06:30:10.568Z,99468.91
2022-08-17T06:34:12.575Z,99480.97
2022-08-17T06:38:38.537Z,99494.44
2022-08-17T06:43:16.265Z,99485.97
2022-08-17T06:47:41.573Z,99485.19
2022-08-17T06:52:45.882Z,99492.81
2022-08-17T06:56:55.500Z,99493.75
2022-08-17T07:01:01.997Z,99482.72
2022-08-17T07:05:04.505Z,99492.56
2022-08-17T07:09:10.748Z,99478.56
2022-08-17T07:14:03.943Z,99488.97
2022-08-17T07:18:14.009Z,99484.06
2022-08-17T07:22:57.707Z,99493.97
2022-08-17T07:27:26.551Z,99493.50
2022-08-17T07:31:30.502Z,99480.41
2022-08-17T07:35:40.804Z,99486.03
2022-08-17T07:39:59.619Z,99487.00
2022-08-17T07:44:11.284Z,99486.03
2022-08-17T07:48:23.355Z,99487.41
2022-08-17T07:52:48.114Z,99482.19
2022-08-17T07:57:01.683Z,99488.38
2022-08-17T08:01:10.925Z,99485.53
2022-08-17T08:05:46.662Z,99477.69
2022-08-17T08:10:12.686Z,99475.72
2022-08-17T08:14:33.936Z,99472.81
2022-08-17T08:18:54.424Z,99473.25
2022-08-17T08:23:18.777Z,99483.44
2022-08-17T08:27:27.235Z,99489.22
2022-08-17T08:32:02.329Z,99478.31
2022-08-17T08:37:05.326Z,99475.78
2022-08-17T08:41:25.522Z,99483.53
2022-08-17T08:45:56.575Z,99467.78
2022-08-17T08:50:05.533Z,99477.25
2022-08-17T08:54:28.654Z,99478.31
2022-08-17T08:58:43.714Z,99475.97
2022-08-17T09:03:36.563Z,99479.06
2022-08-17T09:07:57.301Z,99467.47
2022-08-17T09:12:47.681Z,99475.41
2022-08-17T09:17:21.387Z,99467.59
2022-08-17T09:21:39.866Z,99474.47
2022-08-17T09:25:58.222Z,99471.59
2022-08-17T09:30:04.245Z,99461.81
2022-08-17T09:34:11.558Z,99464.81
2022-08-17T09:38:45.104Z,99451.47
2022-08-17T09:42:54.897Z,99451.38
2022-08-17T09:47:22.970Z,99444.97
2022-08-17T09:51:40.108Z,99437.28
2022-08-17T09:56:08.538Z,99441.63
2022-08-17T10:00:25.129Z,99450.72
2022-08-17T10:04:59.172Z,99443.94
2022-08-17T10:09:30.046Z,99449.44
2022-08-17T10:14:02.580Z,99438.59
2022-08-17T10:18:46.007Z,99442.47
2022-08-17T10:23:21.044Z,99435.38
2022-08-17T10:27:39.405Z,99443.06
2022-08-17T10:31:49.273Z,99428.41
2022-08-17T10:36:01.329Z,99423.47
2022-08-17T10:41:03.591Z,99430.78
2022-08-17T10:45:26.526Z,99420.00
2022-08-17T10:49:34.253Z,99423.59
2022-08-17T10:53:36.106Z,99414.38
2022-08-17T10:57:54.862Z,99413.94
2022-08-17T11:02:01.115Z,99422.88
2022-08-17T11:06:19.637Z,99406.81
2022-08-17T11:10:52.139Z,99396.22
2022-08-17T11:15:38.918Z,99402.88
2022-08-17T11:20:19.382Z,99403.28
2022-08-17T11:24:45.531Z,99390.44
2022-08-17T11:28:52.878Z,99395.38
2022-08-17T11:32:57.907Z,99395.91
2022-08-17T11:37:41.904Z,99396.47
2022-08-17T11:42:08.747Z,99403.00
2022-08-17T11:47:09.344Z,99396.47
2022-08-17T11:51:34.945Z,99393.78
2022-08-17T11:55:44.435Z,99391.38
2022-08-17T11:59:46.827Z,99387.72
2022-08-17T12:03:55.683Z,99385.19
2022-08-17T12:08:19.743Z,99382.41
2022-08-17T12:12:29.833Z,99379.34
2022-08-17T12:16:31.585Z,99362.63
2022-08-17T12:20:37.346Z,99363.63
2022-08-17T12:25:10.288Z,99358.66
2022-08-17T12:29:18.478Z,99359.16
2022-08-17T12:33:43.866Z,99349.97
2022-08-17T12:37:50.317Z,99361.41
2022-08-17T12:42:01.918Z,99358.16
2022-08-17T12:46:12.937Z,99344.56
2022-08-17T12:50:29.445Z,99341.19
2022-08-17T12:54:46.727Z,99340.72
2022-08-17T12:58:54.561Z,99330.44
2022-08-17T13:03:17.026Z,99340.81
2022-08-17T13:07:35.217Z,99335.66
2022-08-17T13:11:37.021Z,99343.00
2022-08-17T13:15:44.775Z,99335.84
2022-08-17T13:19:48.967Z,99334.59
2022-08-17T13:24:27.408Z,99335.22
2022-08-17T13:28:30.755Z,99329.81
2022-08-17T13:32:46.429Z,99328.38
2022-08-17T13:36:48.828Z,99338.28
2022-08-17T13:40:53.084Z,99322.75
2022-08-17T13:44:55.211Z,99350.91
2022-08-17T13:49:05.693Z,99344.38
2022-08-17T13:53:47.388Z,99344.19
2022-08-17T13:58:04.992Z,99347.69
2022-08-17T14:02:15.678Z,99336.03
2022-08-17T14:06:22.153Z,99340.50
2022-08-17T14:10:39.489Z,99339.53
2022-08-17T14:14:42.584Z,99334.88
2022-08-17T14:18:56.828Z,99334.59
2022-08-17T14:22:59.261Z,99333.22
2022-08-17T14:27:02.133Z,99339.94
2022-08-17T14:31:04.408Z,99340.94
2022-08-17T14:35:06.673Z,99322.28
2022-08-17T14:39:09.994Z,99319.25
2022-08-17T14:43:15.960Z,99299.34
2022-08-17T14:47:17.733Z,99303.84
2022-08-17T14:51:21.440Z,99309.50
2022-08-17T14:55:23.917Z,99321.41
2022-08-17T14:59:25.951Z,99306.88
2022-08-17T15:03:30.181Z,99309.03
2022-08-17T15:07:34.735Z,99310.50
2022-08-17T15:11:40.423Z,99329.84
2022-08-17T15:15:42.244Z,99313.91
2022-08-17T15:19:44.166Z,99319.38
2022-08-17T15:23:46.640Z,99318.56
2022-08-17T15:27:48.531Z,99313.22
2022-08-17T15:31:50.529Z,99313.22
2022-08-17T15:35:53.457Z,99303.09
2022-08-17T15:40:03.402Z,99295.44
2022-08-17T15:44:05.487Z,99306.16
2022-08-17T15:48:07.573Z,99295.19
2022-08-17T15:52:25.504Z,99309.41
2022-08-17T15:56:28.465Z,99292.69
2022-08-17T16:00:44.112Z,99281.06
2022-08-17T16:04:58.682Z,99277.59
2022-08-17T16:09:06.185Z,99264.03
2022-08-17T16:13:17.271Z,99268.84
2022-08-17T16:17:38.718Z,99260.91
2022-08-17T16:21:43.121Z,99271.28
2022-08-17T16:25:53.054Z,99281.78
2022-08-17T16:29:55.794Z,99276.53
2022-08-17T16:34:16.382Z,99266.50
2022-08-17T16:38:21.009Z,99269.84
2022-08-17T16:42:34.081Z,99282.59
2022-08-17T16:46:38.305Z,99290.84
2022-08-17T16:51:04.069Z,99282.34
2022-08-17T16:55:08.650Z,99280.75
2022-08-17T16:59:21.132Z,99278.41
2022-08-17T17:03:33.658Z,99300.19
2022-08-17T17:08:06.061Z,99289.84
2022-08-17T17:12:13.802Z,99304.19
2022-08-17T17:16:30.573Z,99291.97
2022-08-17T17:20:44.036Z,99284.06
2022-08-17T17:25:21.378Z,99292.34
2022-08-17T17:29:47.462Z,99294.34
2022-08-17T17:34:00.518Z,99312.00
2022-08-17T17:38:13.489Z,99307.84
2022-08-17T17:42:51.540Z,99308.28
2022-08-17T17:47:08.258Z,99308.81
2022-08-17T17:56:43.300Z,99321.41
2022-08-17T18:01:15.425Z,99329.53
2022-08-17T18:05:48.898Z,99329.50
2022-08-17T18:10:13.837Z,99325.13
2022-08-17T18:14:33.444Z,99339.88
2022-08-17T18:18:44.705Z,99339.75
2022-08-17T18:22:46.602Z,99329.13
2022-08-17T18:27:08.701Z,99335.97
2022-08-17T18:31:22.305Z,99339.59
2022-08-17T18:35:28.790Z,99334.84
2022-08-17T18:39:30.636Z,99337.06
2022-08-17T18:43:44.222Z,99320.78
2022-08-17T18:47:55.715Z,99329.44
2022-08-17T18:52:15.047Z,99328.16
2022-08-17T18:56:33.571Z,99344.66
2022-08-17T19:00:44.339Z,99330.44
2022-08-17T19:05:06.863Z,99329.94
2022-08-17T19:09:43.313Z,99342.09
2022-08-17T19:14:04.393Z,99329.50
2022-08-17T19:18:15.687Z,99337.84
2022-08-17T19:22:28.935Z,99337.28
2022-08-17T19:26:53.742Z,99346.44
2022-08-17T19:31:14.011Z,99343.50
2022-08-17T19:35:20.330Z,99338.94
2022-08-17T19:40:04.191Z,99340.22
2022-08-17T19:45:06.516Z,99336.47
2022-08-17T19:50:01.963Z,99339.16
2022-08-17T19:54:39.658Z,99340.22
2022-08-17T19:59:17.840Z,99341.78
2022-08-17T20:03:50.133Z,99330.53
2022-08-17T20:08:07.117Z,99339.09
2022-08-17T20:12:21.134Z,99325.38
2022-08-17T20:16:23.124Z,99323.72
2022-08-17T20:20:50.584Z,99330.38
2022-08-17T20:25:30.424Z,99339.16
2022-08-17T20:29:39.551Z,99332.16
2022-08-17T20:33:42.506Z,99331.66
2022-08-17T20:38:11.162Z,99337.53
2022-08-17T20:42:21.845Z,99346.88
2022-08-17T20:46:52.200Z,99337.25
2022-08-17T20:50:59.279Z,99337.75
2022-08-17T20:55:02.362Z,99339.31
2022-08-17T20:59:04.147Z,99342.69
2022-08-17T21:03:47.623Z,99335.06
2022-08-17T21:07:58.109Z,99348.69
2022-08-17T21:12:04.480Z,99342.78
2022-08-17T21:16:41.407Z,99356.13
2022-08-17T21:21:41.703Z,99360.91
2022-08-17T21:26:17.884Z,99362.91
2022-08-17T21:30:44.623Z,99372.97
2022-08-17T21:35:09.193Z,99382.63
2022-08-17T21:39:13.723Z,99395.81
2022-08-17T21:43:25.167Z,99388.50
2022-08-17T21:47:28.996Z,99379.56
2022-08-17T21:51:31.075Z,99384.38
2022-08-17T21:55:33.215Z,99401.53
2022-08-17T21:59:38.111Z,99396.69
2022-08-17T22:03:40.077Z,99385.78
2022-08-17T22:07:50.559Z,99396.38
2022-08-17T22:12:24.149Z,99394.75
2022-08-17T22:16:28.547Z,99395.94
2022-08-17T22:20:30.987Z,99400.28
2022-08-17T22:24:32.858Z,99397.31
2022-08-17T22:28:40.605Z,99397.75
2022-08-17T22:32:45.676Z,99380.66
2022-08-17T22:36:47.487Z,99379.78
2022-08-17T22:40:51.902Z,99383.41
2022-08-17T22:44:54.620Z,99392.91
2022-08-17T22:48:59.308Z,99398.06
2022-08-17T22:53:22.442Z,99420.97
2022-08-17T22:57:56.273Z,99412.25
2022-08-17T23:02:14.731Z,99403.19
2022-08-17T23:06:16.614Z,99408.03
2022-08-17T23:10:18.485Z,99398.84
2022-08-17T23:14:21.035Z,99407.09
2022-08-17T23:18:23.484Z,99397.97
2022-08-17T23:22:25.354Z,99406.03
2022-08-17T23:26:30.165Z,99405.63
2022-08-17T23:30:35.840Z,99406.41
2022-08-17T23:34:38.766Z,99393.81
2022-08-17T23:38:43.514Z,99403.53
2022-08-17T23:42:47.258Z,99400.66
2022-08-17T23:46:51.112Z,99398.63
2022-08-17T23:50:56.302Z,99412.16
2022-08-17T23:54:58.723Z,99417.22
2022-08-17T23:59:00.626Z,99402.81
